Time;durP1;ratioP1;P1;durP2;ratioP2;P2;SDS_P1;SDS_P2;PMS_P1;PMS_P2;Temp;Humidity;BMP_temperature;BMP_pressure;BME280_temperature;BME280_humidity;BME280_pressure;Samples;Min_cycle;Max_cycle;Signal;HPM_P1;HPM_P2
2021/12/26 00:00:46;;;;;;;5.55;1.38;;;-5.90;91.80;;;;;;5072065;28;20051;-79
2021/12/26 00:03:11;;;;;;;2.58;0.60;;;-5.90;91.80;;;;;;5071795;28;20114;-79
2021/12/26 00:05:37;;;;;;;4.60;0.60;;;-5.90;91.90;;;;;;5072872;28;20441;-80
2021/12/26 00:08:03;;;;;;;2.65;0.60;;;-6.00;91.80;;;;;;5071957;28;20189;-80
2021/12/26 00:10:29;;;;;;;2.60;0.70;;;-5.90;91.80;;;;;;5089988;28;20040;-79
2021/12/26 00:12:56;;;;;;;1.83;0.70;;;-5.90;91.80;;;;;;5072430;28;20048;-80
2021/12/26 00:15:22;;;;;;;2.17;0.57;;;-5.90;91.70;;;;;;5072228;28;20036;-79
2021/12/26 00:17:48;;;;;;;2.25;0.65;;;-5.90;91.60;;;;;;5072537;28;20060;-78
2021/12/26 00:20:15;;;;;;;2.80;0.57;;;-5.90;91.60;;;;;;5072374;28;20036;-75
2021/12/26 00:22:41;;;;;;;2.50;0.75;;;-5.90;91.40;;;;;;5072284;28;20052;-78
2021/12/26 00:25:08;;;;;;;2.30;0.50;;;-5.90;91.40;;;;;;5076425;28;20044;-67
2021/12/26 00:27:35;;;;;;;3.35;0.60;;;-5.90;91.10;;;;;;5059417;28;20054;-77
2021/12/26 00:30:01;;;;;;;2.22;0.52;;;-5.90;91.10;;;;;;5075438;28;20051;-77
2021/12/26 00:32:26;;;;;;;4.13;1.13;;;-5.80;91.10;;;;;;5059396;28;20063;-77
2021/12/26 00:34:52;;;;;;;3.13;0.60;;;-5.80;90.80;;;;;;5076050;28;20467;-77
2021/12/26 00:37:18;;;;;;;3.35;0.43;;;-5.80;90.70;;;;;;5075257;28;20040;-78
2021/12/26 00:39:45;;;;;;;2.08;0.75;;;-5.80;90.40;;;;;;5075606;28;20048;-78
2021/12/26 00:42:11;;;;;;;1.15;0.25;;;-5.80;90.40;;;;;;5075969;28;20035;-77
2021/12/26 00:44:39;;;;;;;1.33;0.30;;;-5.70;90.10;;;;;;5075907;28;20119;-73
2021/12/26 00:47:10;;;;;;;2.63;0.52;;;-5.70;90.20;;;;;;5094067;28;20055;-76
2021/12/26 00:49:37;;;;;;;3.10;0.60;;;-5.70;90.20;;;;;;5074659;28;20126;-79
2021/12/26 00:52:03;;;;;;;1.67;0.47;;;-5.70;90.00;;;;;;5075803;28;20051;-78
2021/12/26 00:54:29;;;;;;;1.10;0.45;;;-5.80;89.80;;;;;;5076043;28;20051;-78
2021/12/26 00:56:56;;;;;;;2.88;0.47;;;-5.80;89.10;;;;;;5074937;28;20058;-79
2021/12/26 00:59:24;;;;;;;1.65;0.38;;;-5.80;89.60;;;;;;5075286;28;20066;-78
2021/12/26 01:01:50;;;;;;;2.35;0.30;;;-5.80;89.80;;;;;;5057595;28;20048;-72
2021/12/26 01:04:15;;;;;;;1.98;0.40;;;-5.80;89.50;;;;;;5057677;28;20055;-69
2021/12/26 01:06:41;;;;;;;1.65;0.38;;;-5.70;88.50;;;;;;5074716;28;20043;-73
2021/12/26 01:09:10;;;;;;;2.38;0.57;;;-5.70;89.00;;;;;;5048152;28;20036;-71
2021/12/26 01:11:43;;;;;;;1.85;0.40;;;-5.70;88.80;;;;;;5073743;28;20174;-77
2021/12/26 01:14:11;;;;;;;2.20;0.40;;;-5.80;88.60;;;;;;5075524;28;20484;-77
2021/12/26 01:16:39;;;;;;;2.60;0.50;;;-5.70;88.50;;;;;;5075352;28;20048;-77
2021/12/26 01:19:10;;;;;;;2.10;0.30;;;-5.70;87.90;;;;;;5075149;28;20094;-72
2021/12/26 01:21:37;;;;;;;1.92;0.30;;;-5.70;87.20;;;;;;5075370;28;20427;-71
2021/12/26 01:24:07;;;;;;;2.15;0.30;;;-5.70;87.60;;;;;;5075058;28;20055;-75
2021/12/26 01:26:34;;;;;;;1.63;0.40;;;-5.60;86.20;;;;;;5073809;28;20119;-71
2021/12/26 01:29:01;;;;;;;2.17;0.57;;;-5.70;85.30;;;;;;5075241;28;20047;-68
2021/12/26 01:31:27;;;;;;;3.00;0.47;;;-5.70;86.10;;;;;;5057942;28;20123;-73
2021/12/26 01:33:59;;;;;;;1.10;0.40;;;-5.70;84.60;;;;;;5073527;28;20550;-73
2021/12/26 01:36:27;;;;;;;2.53;0.30;;;-5.70;85.40;;;;;;5074970;28;20048;-73
2021/12/26 01:38:56;;;;;;;2.30;0.40;;;-5.70;85.40;;;;;;5057294;28;20052;-76
2021/12/26 01:41:22;;;;;;;1.48;0.38;;;-5.80;85.80;;;;;;5073991;28;20036;-77
2021/12/26 01:43:48;;;;;;;4.20;0.45;;;-5.70;85.00;;;;;;5073937;28;20048;-73
2021/12/26 01:46:16;;;;;;;1.80;0.40;;;-5.70;84.80;;;;;;5056860;28;20040;-67
2021/12/26 01:48:41;;;;;;;1.67;0.40;;;-5.70;85.10;;;;;;5074304;28;20052;-77
2021/12/26 01:51:07;;;;;;;1.65;0.30;;;-5.80;83.70;;;;;;5070707;28;20051;-78
2021/12/26 01:53:38;;;;;;;1.55;0.40;;;-5.80;84.20;;;;;;5082226;28;20080;-73
2021/12/26 01:56:08;;;;;;;1.45;0.30;;;-5.80;85.00;;;;;;5038443;28;20517;-76
2021/12/26 01:58:36;;;;;;;1.95;0.35;;;-5.80;84.70;;;;;;5039117;28;20052;-78
2021/12/26 02:01:05;;;;;;;1.38;0.32;;;-5.80;84.80;;;;;;5066210;28;20051;-79
2021/12/26 02:03:31;;;;;;;3.22;0.50;;;-5.80;85.10;;;;;;5074333;28;20043;-78
2021/12/26 02:05:57;;;;;;;2.45;0.20;;;-5.80;84.70;;;;;;5074270;28;20044;-79
2021/12/26 02:08:23;;;;;;;1.75;0.30;;;-5.80;83.00;;;;;;5073330;28;20047;-79
2021/12/26 02:10:50;;;;;;;1.15;0.30;;;-5.80;84.20;;;;;;5073955;28;20079;-77
2021/12/26 02:13:16;;;;;;;1.30;0.30;;;-5.80;83.70;;;;;;5073852;28;20036;-78
2021/12/26 02:15:41;;;;;;;1.00;0.22;;;-5.80;83.50;;;;;;5073399;28;20044;-78
2021/12/26 02:18:08;;;;;;;2.35;0.20;;;-5.80;84.40;;;;;;5074097;28;20048;-78
2021/12/26 02:23:33;;;;;;;3.07;0.37;;;-5.90;84.60;;;;;;5073623;28;20048;-81
2021/12/26 02:28:46;;;;;;;1.98;0.40;;;-6.00;84.70;;;;;;5073045;28;20039;-72
2021/12/26 02:31:14;;;;;;;2.30;0.50;;;-6.00;83.70;;;;;;5073841;28;20436;-70
2021/12/26 02:33:39;;;;;;;1.13;0.30;;;-6.00;84.10;;;;;;5069721;28;20492;-68
2021/12/26 02:36:06;;;;;;;1.38;0.20;;;-6.00;84.50;;;;;;5041626;28;20074;-69
2021/12/26 02:38:32;;;;;;;0.90;0.25;;;-5.90;83.70;;;;;;5056397;28;20040;-75
2021/12/26 02:40:59;;;;;;;1.30;0.40;;;-5.90;83.90;;;;;;5073261;28;20108;-75
2021/12/26 02:43:27;;;;;;;1.08;0.20;;;-5.90;84.20;;;;;;5073433;28;20090;-71
2021/12/26 02:45:53;;;;;;;3.30;0.57;;;-5.90;84.00;;;;;;5072249;28;20066;-73
2021/12/26 02:48:20;;;;;;;2.25;0.30;;;-5.90;83.70;;;;;;5073387;28;20048;-70
2021/12/26 02:50:50;;;;;;;1.75;0.30;;;-5.90;83.10;;;;;;5072777;28;20046;-73
2021/12/26 02:53:20;;;;;;;2.63;0.82;;;-5.80;82.20;;;;;;5073769;28;20434;-74
2021/12/26 02:55:48;;;;;;;2.90;0.32;;;-5.80;81.50;;;;;;5073309;28;20044;-74
2021/12/26 02:58:14;;;;;;;0.70;0.22;;;-5.80;82.70;;;;;;5055983;28;20404;-73
2021/12/26 03:01:03;;;;;;;2.78;0.43;;;-5.80;81.50;;;;;;5051208;28;20040;-74
2021/12/26 03:03:29;;;;;;;1.50;0.30;;;-5.80;82.20;;;;;;5054266;28;20135;-72
2021/12/26 03:06:01;;;;;;;1.73;0.30;;;-5.80;82.50;;;;;;5071490;28;20130;-69
2021/12/26 03:08:27;;;;;;;2.30;0.43;;;-5.80;82.20;;;;;;5073094;28;20542;-70
2021/12/26 03:10:54;;;;;;;2.80;0.30;;;-5.80;82.00;;;;;;5071948;28;20066;-71
2021/12/26 03:13:21;;;;;;;1.35;0.40;;;-5.80;82.10;;;;;;5073209;28;20040;-75
2021/12/26 03:15:47;;;;;;;3.90;0.30;;;-5.80;81.20;;;;;;5073114;28;20055;-70
2021/12/26 03:18:13;;;;;;;1.63;0.30;;;-5.80;82.00;;;;;;5072684;28;20139;-75
2021/12/26 03:20:42;;;;;;;2.25;0.50;;;-5.70;80.90;;;;;;5072712;28;20130;-78
2021/12/26 03:23:11;;;;;;;1.70;0.40;;;-5.60;79.60;;;;;;5056708;28;20447;-77
2021/12/26 03:25:37;;;;;;;1.83;0.30;;;-5.60;79.80;;;;;;5072335;28;20079;-67
2021/12/26 03:28:05;;;;;;;1.60;0.30;;;-5.60;79.40;;;;;;5072980;28;20047;-76
2021/12/26 03:30:32;;;;;;;1.75;0.50;;;-5.60;80.00;;;;;;5072877;28;20490;-78
2021/12/26 03:32:59;;;;;;;2.38;0.50;;;-5.60;78.80;;;;;;5072177;28;20100;-78
2021/12/26 03:35:28;;;;;;;2.13;0.30;;;-5.50;78.10;;;;;;5072103;28;20043;-77
2021/12/26 03:37:55;;;;;;;3.08;0.32;;;-5.50;78.40;;;;;;5067858;28;20076;-73
2021/12/26 03:40:20;;;;;;;1.45;0.40;;;-5.50;77.80;;;;;;5071449;28;20498;-68
2021/12/26 03:42:46;;;;;;;3.13;0.57;;;-5.40;77.60;;;;;;5056444;28;20032;-75
2021/12/26 03:45:12;;;;;;;2.95;0.40;;;-5.40;78.30;;;;;;5072640;28;20048;-77
2021/12/26 03:47:39;;;;;;;2.35;0.50;;;-5.40;78.60;;;;;;5072110;28;20055;-77
2021/12/26 03:50:06;;;;;;;1.80;0.30;;;-5.40;77.70;;;;;;5073288;28;20044;-68
2021/12/26 03:52:33;;;;;;;3.83;0.60;;;-5.50;78.00;;;;;;5071799;28;20561;-77
2021/12/26 03:54:58;;;;;;;2.55;0.52;;;-5.50;78.60;;;;;;5072612;28;20403;-72
2021/12/26 03:57:24;;;;;;;1.55;0.47;;;-5.50;78.30;;;;;;5073965;28;20107;-77
2021/12/26 03:59:50;;;;;;;3.97;0.82;;;-5.50;78.30;;;;;;5076002;28;20463;-76
2021/12/26 04:02:15;;;;;;;2.40;0.50;;;-5.50;79.00;;;;;;5095023;28;20044;-72
2021/12/26 04:04:43;;;;;;;2.25;0.60;;;-5.50;79.20;;;;;;5094844;28;20435;-69
2021/12/26 04:07:10;;;;;;;2.95;0.68;;;-5.50;78.40;;;;;;5075576;28;20044;-75
2021/12/26 04:09:36;;;;;;;2.17;0.85;;;-5.50;78.20;;;;;;5094921;28;20047;-75
2021/12/26 04:12:02;;;;;;;2.55;0.73;;;-5.50;78.00;;;;;;5075744;28;20047;-66
2021/12/26 04:14:29;;;;;;;4.30;0.63;;;-5.50;77.80;;;;;;5075917;28;20060;-76
2021/12/26 04:16:54;;;;;;;2.78;0.60;;;-5.40;77.70;;;;;;5093938;28;20079;-71
2021/12/26 04:19:20;;;;;;;1.70;0.65;;;-5.50;77.90;;;;;;5076138;28;20079;-75
2021/12/26 04:21:46;;;;;;;3.53;0.80;;;-5.50;77.70;;;;;;5093555;28;20036;-73
2021/12/26 04:24:12;;;;;;;2.70;0.63;;;-5.50;76.80;;;;;;5059129;28;20137;-74
2021/12/26 04:26:39;;;;;;;3.05;0.85;;;-5.60;77.70;;;;;;5094478;28;20093;-72
2021/12/26 04:29:06;;;;;;;2.97;0.60;;;-5.50;78.40;;;;;;5094241;28;20071;-71
2021/12/26 04:31:31;;;;;;;2.83;0.60;;;-5.60;77.40;;;;;;5075117;28;20040;-70
2021/12/26 04:33:57;;;;;;;3.53;0.40;;;-5.50;76.40;;;;;;5073200;28;20408;-74
2021/12/26 04:36:23;;;;;;;1.95;0.50;;;-5.60;77.70;;;;;;5075131;28;20458;-75
2021/12/26 04:38:49;;;;;;;4.10;0.63;;;-5.50;77.50;;;;;;5075184;28;20044;-79
2021/12/26 04:41:14;;;;;;;2.13;0.85;;;-5.60;77.60;;;;;;5075602;28;20044;-80
2021/12/26 04:43:41;;;;;;;3.28;0.65;;;-5.50;76.80;;;;;;5075276;28;20184;-74
2021/12/26 04:46:08;;;;;;;1.70;0.40;;;-5.50;77.90;;;;;;5059191;28;20516;-80
2021/12/26 04:48:36;;;;;;;2.08;0.50;;;-5.50;77.60;;;;;;5075312;28;20064;-80
2021/12/26 04:51:04;;;;;;;2.25;0.63;;;-5.60;77.90;;;;;;5075240;28;20481;-76
2021/12/26 04:53:30;;;;;;;2.67;0.60;;;-5.60;78.00;;;;;;5075383;28;20059;-71
2021/12/26 04:55:55;;;;;;;2.90;0.75;;;-5.50;78.10;;;;;;5075084;28;20032;-73
2021/12/26 04:58:21;;;;;;;2.55;0.70;;;-5.50;77.80;;;;;;5075418;28;20040;-66
2021/12/26 05:00:47;;;;;;;1.80;0.60;;;-5.50;78.00;;;;;;5074391;28;20083;-67
2021/12/26 05:03:14;;;;;;;2.17;0.90;;;-5.60;77.60;;;;;;5074813;28;20079;-70
2021/12/26 05:05:39;;;;;;;3.33;0.75;;;-5.60;78.10;;;;;;5058920;28;20032;-68
2021/12/26 05:08:06;;;;;;;1.88;0.65;;;-5.60;79.00;;;;;;5075146;28;20542;-77
2021/12/26 05:10:32;;;;;;;3.17;0.60;;;-5.60;78.60;;;;;;5074642;28;20484;-77
2021/12/26 05:12:59;;;;;;;3.42;0.90;;;-5.60;78.20;;;;;;5075261;28;20048;-76
2021/12/26 05:15:26;;;;;;;3.30;0.55;;;-5.60;78.50;;;;;;5075442;28;20404;-74
2021/12/26 05:17:53;;;;;;;2.40;0.50;;;-5.60;78.50;;;;;;5067265;28;20048;-75
2021/12/26 05:20:19;;;;;;;2.25;0.57;;;-5.60;77.80;;;;;;5056304;28;20044;-75
2021/12/26 05:22:46;;;;;;;2.75;0.60;;;-5.60;78.00;;;;;;5074211;28;20476;-75
2021/12/26 05:25:12;;;;;;;3.35;0.75;;;-5.60;77.90;;;;;;5074070;28;20059;-76
2021/12/26 05:27:38;;;;;;;2.08;0.70;;;-5.60;78.70;;;;;;5075355;28;20056;-69
2021/12/26 05:30:07;;;;;;;1.30;0.40;;;-5.60;78.70;;;;;;5075293;28;20059;-72
2021/12/26 05:32:33;;;;;;;5.18;0.70;;;-5.60;78.40;;;;;;5074009;28;20048;-79
2021/12/26 05:34:58;;;;;;;2.55;0.90;;;-5.60;78.30;;;;;;5075506;28;20112;-80
2021/12/26 05:37:24;;;;;;;1.73;0.57;;;-5.60;78.50;;;;;;5074528;28;20051;-75
2021/12/26 05:39:50;;;;;;;2.72;0.65;;;-5.60;78.50;;;;;;5074571;28;20040;-74
2021/12/26 05:42:15;;;;;;;2.47;0.60;;;-5.60;78.40;;;;;;5057901;28;20094;-73
2021/12/26 05:44:45;;;;;;;3.08;1.00;;;-5.70;78.80;;;;;;5074566;28;20046;-71
2021/12/26 05:47:11;;;;;;;2.58;0.70;;;-5.60;78.70;;;;;;5074415;28;20442;-75
2021/12/26 05:49:37;;;;;;;2.25;0.60;;;-5.70;78.80;;;;;;5073818;28;20139;-71
2021/12/26 05:52:03;;;;;;;3.83;0.68;;;-5.60;79.50;;;;;;5074008;28;20079;-71
2021/12/26 05:54:29;;;;;;;3.03;0.80;;;-5.60;78.80;;;;;;5074540;28;20211;-70
2021/12/26 05:56:55;;;;;;;3.58;0.75;;;-5.60;79.00;;;;;;5074166;28;21222;-76
2021/12/26 05:59:20;;;;;;;2.35;0.90;;;-5.60;78.80;;;;;;5073463;28;20048;-69
2021/12/26 06:01:46;;;;;;;3.25;1.20;;;-5.60;79.20;;;;;;5074078;28;20400;-75
2021/12/26 06:04:11;;;;;;;2.15;0.60;;;-5.60;78.60;;;;;;5057721;28;20047;-69
2021/12/26 06:06:37;;;;;;;2.30;0.85;;;-5.60;79.00;;;;;;5073904;28;20044;-74
2021/12/26 06:09:04;;;;;;;2.17;0.98;;;-5.60;79.00;;;;;;5073906;28;20056;-71
2021/12/26 06:11:29;;;;;;;2.42;0.90;;;-5.60;78.50;;;;;;5073935;28;20546;-69
2021/12/26 06:13:55;;;;;;;2.95;0.90;;;-5.60;78.50;;;;;;5073569;28;20054;-75
2021/12/26 06:16:21;;;;;;;2.67;0.98;;;-5.60;78.90;;;;;;5073872;28;20100;-70
2021/12/26 06:18:47;;;;;;;2.45;0.85;;;-5.70;78.70;;;;;;5074222;28;20048;-73
2021/12/26 06:21:12;;;;;;;3.35;1.08;;;-5.70;79.20;;;;;;5067260;28;20032;-75
2021/12/26 06:23:38;;;;;;;3.10;0.63;;;-5.70;79.30;;;;;;5073854;28;20497;-76
2021/12/26 06:26:04;;;;;;;1.75;0.70;;;-5.70;79.20;;;;;;5085084;28;20404;-74
2021/12/26 06:28:29;;;;;;;2.00;0.90;;;-5.70;78.90;;;;;;5073071;28;20083;-77
2021/12/26 06:30:55;;;;;;;3.33;0.68;;;-5.70;79.70;;;;;;5074391;28;20058;-69
2021/12/26 06:33:20;;;;;;;3.83;0.98;;;-5.70;78.80;;;;;;5073253;28;20046;-69
2021/12/26 06:35:46;;;;;;;3.72;1.40;;;-5.60;79.20;;;;;;5073315;28;20495;-75
2021/12/26 06:38:12;;;;;;;2.97;0.95;;;-5.70;78.90;;;;;;5091513;28;20119;-75
2021/12/26 06:40:37;;;;;;;4.03;0.93;;;-5.60;78.40;;;;;;5074276;28;20044;-70
2021/12/26 06:43:03;;;;;;;1.70;0.70;;;-5.60;78.60;;;;;;5072460;28;20040;-75
2021/12/26 06:45:29;;;;;;;3.15;0.85;;;-5.60;79.30;;;;;;5073328;28;20364;-70
2021/12/26 06:47:56;;;;;;;2.63;1.00;;;-5.60;78.90;;;;;;5073277;28;20048;-72
2021/12/26 06:50:22;;;;;;;1.95;0.80;;;-5.60;77.70;;;;;;5071850;28;20063;-68
2021/12/26 06:52:48;;;;;;;2.35;0.50;;;-5.60;78.80;;;;;;5072725;28;20233;-78
2021/12/26 06:55:14;;;;;;;2.78;0.80;;;-5.60;79.20;;;;;;5072969;28;20055;-78
2021/12/26 06:57:40;;;;;;;3.38;1.08;;;-5.60;79.40;;;;;;5072944;28;20054;-79
2021/12/26 07:00:09;;;;;;;2.47;1.00;;;-5.60;79.70;;;;;;5073627;28;20101;-71
2021/12/26 07:02:35;;;;;;;3.40;0.82;;;-5.70;79.60;;;;;;5072450;28;21800;-71
2021/12/26 07:05:01;;;;;;;4.68;1.30;;;-5.70;80.40;;;;;;5073173;28;20040;-75
2021/12/26 07:07:26;;;;;;;2.83;1.08;;;-5.70;80.40;;;;;;5072895;28;20074;-77
2021/12/26 07:09:52;;;;;;;2.70;1.08;;;-5.70;80.10;;;;;;5056160;28;20131;-71
2021/12/26 07:12:18;;;;;;;4.32;1.00;;;-5.70;80.10;;;;;;5072769;28;20048;-75
2021/12/26 07:14:43;;;;;;;2.75;1.20;;;-5.60;80.40;;;;;;5073039;28;20078;-75
2021/12/26 07:17:10;;;;;;;5.03;1.45;;;-5.70;80.30;;;;;;5056347;28;20059;-68
2021/12/26 07:19:37;;;;;;;3.05;1.33;;;-5.70;80.30;;;;;;5071923;28;20048;-78
2021/12/26 07:22:03;;;;;;;1.83;0.73;;;-5.70;79.60;;;;;;5071139;28;20473;-71
2021/12/26 07:24:29;;;;;;;2.25;0.80;;;-5.70;80.40;;;;;;5071954;28;20059;-76
2021/12/26 07:26:54;;;;;;;3.33;1.25;;;-5.60;80.40;;;;;;5072895;28;20032;-77
2021/12/26 07:29:20;;;;;;;2.78;0.80;;;-5.70;80.90;;;;;;5072389;28;20067;-73
2021/12/26 07:31:46;;;;;;;2.08;0.88;;;-5.70;81.60;;;;;;5071283;28;20044;-74
2021/12/26 07:34:11;;;;;;;2.45;0.90;;;-5.70;80.90;;;;;;5072889;28;20048;-71
2021/12/26 07:36:37;;;;;;;3.10;1.08;;;-5.60;81.00;;;;;;5073099;28;20404;-75
2021/12/26 07:39:04;;;;;;;3.45;1.10;;;-5.60;81.30;;;;;;5068508;28;20049;-72
2021/12/26 07:41:30;;;;;;;2.45;1.00;;;-5.70;81.50;;;;;;5071263;28;20048;-76
2021/12/26 07:43:56;;;;;;;2.50;1.48;;;-5.70;81.40;;;;;;5072448;28;20040;-69
2021/12/26 07:46:21;;;;;;;1.58;0.82;;;-5.60;81.30;;;;;;5071752;28;20040;-73
2021/12/26 07:48:47;;;;;;;3.05;0.90;;;-5.60;81.10;;;;;;5072375;28;20146;-77
2021/12/26 07:51:13;;;;;;;3.08;1.40;;;-5.60;81.20;;;;;;5038139;28;20598;-76
2021/12/26 07:53:38;;;;;;;3.92;1.20;;;-5.50;81.00;;;;;;5070882;28;20036;-77
2021/12/26 07:56:04;;;;;;;2.65;0.80;;;-5.50;81.10;;;;;;5052436;28;20477;-74
2021/12/26 07:58:31;;;;;;;2.63;1.17;;;-5.50;81.00;;;;;;5071525;28;20492;-77
2021/12/26 08:00:57;;;;;;;2.53;1.05;;;-5.50;80.70;;;;;;5072482;28;20440;-72
2021/12/26 08:03:22;;;;;;;2.88;0.82;;;-5.40;81.20;;;;;;5072488;28;20119;-73
2021/12/26 08:05:48;;;;;;;4.43;1.50;;;-5.40;80.70;;;;;;5071321;28;20050;-70
2021/12/26 08:08:14;;;;;;;2.70;1.17;;;-5.40;80.90;;;;;;5071961;28;20130;-73
2021/12/26 08:10:39;;;;;;;4.38;1.45;;;-5.40;80.60;;;;;;5072720;28;20070;-70
2021/12/26 08:13:05;;;;;;;2.72;0.88;;;-5.30;81.00;;;;;;5071359;28;20090;-71
2021/12/26 08:15:31;;;;;;;3.38;1.35;;;-5.30;81.40;;;;;;5068669;28;20385;-72
2021/12/26 08:17:59;;;;;;;3.38;1.15;;;-5.30;80.80;;;;;;5070521;28;20040;-72
2021/12/26 08:20:25;;;;;;;3.63;1.00;;;-5.30;81.00;;;;;;5055328;28;20040;-73
2021/12/26 08:22:51;;;;;;;3.03;1.48;;;-5.30;80.80;;;;;;5089182;28;20048;-66
2021/12/26 08:25:17;;;;;;;3.78;1.30;;;-5.20;81.00;;;;;;5090360;28;20032;-73
2021/12/26 08:27:43;;;;;;;2.63;1.00;;;-5.30;80.80;;;;;;5088250;28;20421;-73
2021/12/26 08:30:09;;;;;;;1.75;0.82;;;-5.20;80.40;;;;;;5071868;28;20101;-72
2021/12/26 08:32:38;;;;;;;4.32;1.52;;;-5.20;80.60;;;;;;5065610;28;20405;-68
2021/12/26 08:35:06;;;;;;;3.15;1.58;;;-5.20;81.10;;;;;;5072263;28;20400;-73
2021/12/26 08:37:32;;;;;;;2.47;1.10;;;-5.10;80.30;;;;;;5054215;28;20481;-70
2021/12/26 08:39:58;;;;;;;2.22;1.15;;;-5.10;81.40;;;;;;5071909;28;20102;-68
2021/12/26 08:42:23;;;;;;;3.33;1.15;;;-5.10;81.40;;;;;;5071821;28;20044;-70
2021/12/26 08:44:52;;;;;;;4.18;1.30;;;-5.00;80.50;;;;;;5074485;28;20054;-71
2021/12/26 08:47:18;;;;;;;3.83;1.17;;;-5.00;80.10;;;;;;5075604;28;20063;-68
2021/12/26 08:49:43;;;;;;;3.38;1.58;;;-4.90;80.60;;;;;;5074936;28;20471;-67
2021/12/26 08:52:09;;;;;;;5.05;1.58;;;-5.00;80.70;;;;;;5058988;28;20036;-70
2021/12/26 08:54:38;;;;;;;2.97;1.55;;;-4.90;80.20;;;;;;5092797;28;20095;-68
2021/12/26 08:57:05;;;;;;;4.47;2.22;;;-4.90;80.20;;;;;;5074927;28;20094;-70
2021/12/26 08:59:31;;;;;;;5.22;2.13;;;-4.80;81.40;;;;;;5075637;28;20044;-73
2021/12/26 09:01:58;;;;;;;3.38;1.88;;;-4.80;81.10;;;;;;5074817;28;20362;-72
2021/12/26 09:04:24;;;;;;;6.20;2.50;;;-4.70;80.80;;;;;;5074902;28;20510;-67
2021/12/26 09:06:50;;;;;;;3.15;2.10;;;-4.60;80.70;;;;;;5073272;28;20127;-73
2021/12/26 09:09:15;;;;;;;4.43;2.20;;;-4.60;80.10;;;;;;5061632;28;20106;-67
2021/12/26 09:11:41;;;;;;;3.40;1.80;;;-4.60;79.70;;;;;;5090816;28;20393;-66
2021/12/26 09:14:07;;;;;;;2.28;1.73;;;-4.50;80.10;;;;;;5075464;28;20109;-74
2021/12/26 09:16:34;;;;;;;4.38;1.77;;;-4.40;81.50;;;;;;5074534;28;20395;-73
2021/12/26 09:19:04;;;;;;;3.63;2.13;;;-4.40;81.00;;;;;;5057609;28;20040;-68
2021/12/26 09:21:31;;;;;;;4.85;2.05;;;-4.30;79.80;;;;;;5075065;28;20044;-74
2021/12/26 09:23:56;;;;;;;3.42;2.17;;;-4.20;79.50;;;;;;5074188;28;20040;-72
2021/12/26 09:26:22;;;;;;;4.78;2.05;;;-4.20;78.80;;;;;;5058490;28;20396;-68
2021/12/26 09:28:49;;;;;;;4.63;2.13;;;-4.10;79.90;;;;;;5070053;28;20045;-72
2021/12/26 09:31:14;;;;;;;4.15;2.33;;;-4.00;78.50;;;;;;5073416;28;20036;-68
2021/12/26 09:33:40;;;;;;;4.43;2.78;;;-4.00;79.30;;;;;;5064236;28;20044;-69
2021/12/26 09:36:06;;;;;;;5.63;2.10;;;-3.90;78.30;;;;;;5073280;28;20036;-68
2021/12/26 09:38:32;;;;;;;3.53;1.92;;;-3.90;79.60;;;;;;5091048;28;20032;-68
2021/12/26 09:40:59;;;;;;;5.05;2.30;;;-4.00;78.70;;;;;;5072661;28;20488;-68
2021/12/26 09:43:25;;;;;;;4.82;2.03;;;-3.90;78.40;;;;;;5074989;28;20040;-72
2021/12/26 09:45:51;;;;;;;4.28;2.45;;;-4.00;79.40;;;;;;5073969;28;20094;-69
2021/12/26 09:48:17;;;;;;;4.72;2.58;;;-4.00;80.00;;;;;;5074453;28;20451;-67
2021/12/26 09:50:42;;;;;;;4.43;2.65;;;-3.90;80.20;;;;;;5089721;28;20072;-71
2021/12/26 09:53:09;;;;;;;4.55;2.63;;;-3.80;80.40;;;;;;5073636;28;20412;-70
2021/12/26 09:55:37;;;;;;;6.13;3.10;;;-3.70;80.60;;;;;;5075078;28;20059;-70
2021/12/26 09:58:05;;;;;;;5.97;3.85;;;-3.50;80.90;;;;;;5057414;28;20103;-72
2021/12/26 10:00:36;;;;;;;3.78;2.40;;;-3.30;80.30;;;;;;5074164;28;20047;-71
2021/12/26 10:03:23;;;;;;;3.80;2.53;;;-3.20;79.40;;;;;;5074453;28;20463;-71
2021/12/26 10:06:13;;;;;;;4.30;2.25;;;-3.10;79.00;;;;;;5073350;28;20496;-72
2021/12/26 10:09:01;;;;;;;5.40;2.85;;;-2.90;79.80;;;;;;5071746;28;20130;-72
2021/12/26 10:11:29;;;;;;;6.65;2.78;;;-2.80;79.20;;;;;;5056019;28;20040;-72
2021/12/26 10:14:06;;;;;;;4.70;2.38;;;-2.60;78.70;;;;;;5072284;28;20039;-72
2021/12/26 10:16:36;;;;;;;5.07;2.72;;;-2.50;77.90;;;;;;5065390;28;20093;-72
2021/12/26 10:19:04;;;;;;;6.75;3.25;;;-2.50;77.50;;;;;;5059723;28;20307;-68
2021/12/26 10:21:43;;;;;;;5.93;2.70;;;-2.40;78.10;;;;;;5073717;28;20052;-70
2021/12/26 10:24:36;;;;;;;4.63;2.30;;;-2.30;78.00;;;;;;5044184;28;20127;-71
2021/12/26 10:27:04;;;;;;;6.45;2.60;;;-2.30;78.20;;;;;;5072052;28;20516;-69
2021/12/26 10:29:38;;;;;;;4.93;2.20;;;-2.20;78.20;;;;;;5073241;28;20051;-71
2021/12/26 10:32:04;;;;;;;3.13;2.30;;;-2.20;77.60;;;;;;5073530;28;20043;-68
2021/12/26 10:34:32;;;;;;;5.00;2.33;;;-2.20;76.30;;;;;;5073398;28;20062;-70
2021/12/26 10:37:00;;;;;;;4.60;2.15;;;-2.20;75.90;;;;;;5073572;28;20057;-70
2021/12/26 10:39:29;;;;;;;4.78;2.38;;;-2.10;77.10;;;;;;5072478;28;20500;-66
2021/12/26 10:41:59;;;;;;;8.43;2.92;;;-2.10;76.40;;;;;;5073839;28;20051;-71
2021/12/26 10:44:51;;;;;;;6.00;2.63;;;-2.10;76.30;;;;;;5056712;28;20090;-69
2021/12/26 10:47:20;;;;;;;4.72;2.30;;;-2.10;76.00;;;;;;5059695;28;20051;-66
2021/12/26 10:49:50;;;;;;;5.38;2.72;;;-2.00;77.20;;;;;;5056763;28;20067;-67
2021/12/26 10:52:28;;;;;;;4.50;2.65;;;-2.00;75.50;;;;;;5073757;28;20048;-74
2021/12/26 10:55:04;;;;;;;4.90;3.10;;;-2.00;76.40;;;;;;5072520;28;20048;-71
2021/12/26 10:57:29;;;;;;;5.00;2.95;;;-1.90;76.30;;;;;;5066637;28;20452;-73
2021/12/26 11:00:04;;;;;;;5.03;2.88;;;-2.00;76.10;;;;;;5072473;28;20806;-74
2021/12/26 11:02:31;;;;;;;4.63;2.58;;;-1.90;76.40;;;;;;5073960;28;20403;-71
2021/12/26 11:05:03;;;;;;;4.78;2.75;;;-1.90;76.50;;;;;;5073257;28;20044;-68
2021/12/26 11:07:40;;;;;;;4.07;2.67;;;-1.80;76.70;;;;;;5072717;28;20098;-68
2021/12/26 11:10:15;;;;;;;5.78;2.90;;;-1.80;75.10;;;;;;5073102;28;20036;-67
2021/12/26 11:12:44;;;;;;;4.55;2.88;;;-1.80;75.20;;;;;;5073183;28;20048;-71
2021/12/26 11:15:11;;;;;;;5.13;3.20;;;-1.80;76.30;;;;;;5072752;28;20040;-71
2021/12/26 11:17:44;;;;;;;8.15;3.63;;;-1.80;76.70;;;;;;5090511;28;20052;-67
2021/12/26 11:20:19;;;;;;;6.38;3.75;;;-1.70;77.40;;;;;;5072097;28;20063;-72
2021/12/26 11:22:45;;;;;;;5.00;3.17;;;-1.70;77.90;;;;;;5090472;28;20040;-72
2021/12/26 11:25:11;;;;;;;4.28;2.88;;;-1.70;76.70;;;;;;5091502;28;20404;-72
2021/12/26 11:27:37;;;;;;;5.55;3.95;;;-1.50;77.40;;;;;;5073089;28;20039;-72
2021/12/26 11:30:05;;;;;;;5.15;3.33;;;-1.50;77.20;;;;;;5072906;28;20098;-71
2021/12/26 11:32:32;;;;;;;4.72;2.95;;;-1.40;77.40;;;;;;5090859;28;20093;-72
2021/12/26 11:34:58;;;;;;;4.70;2.90;;;-1.30;77.40;;;;;;5072544;28;20056;-67
2021/12/26 11:37:24;;;;;;;5.30;3.33;;;-1.20;77.60;;;;;;5090854;28;20170;-72
2021/12/26 11:39:51;;;;;;;5.10;3.17;;;-1.10;77.40;;;;;;5056110;28;20093;-72
2021/12/26 11:42:44;;;;;;;7.97;4.25;;;-1.10;76.60;;;;;;5055447;28;20044;-67
2021/12/26 11:45:21;;;;;;;;;;;-1.10;76.70;;;;;;5073757;28;20389;-72
2021/12/26 11:48:21;;;;;;;5.50;3.40;;;-1.10;77.20;;;;;;5071190;28;19920;-67
2021/12/26 11:51:05;;;;;;;6.07;3.40;;;-1.00;76.80;;;;;;5069275;28;20052;-72
2021/12/26 11:53:42;;;;;;;7.47;3.10;;;-1.00;77.20;;;;;;5072694;28;20457;-69
2021/12/26 11:56:26;;;;;;;7.10;3.58;;;-1.00;77.10;;;;;;5070741;28;20126;-67
2021/12/26 11:59:10;;;;;;;4.90;2.80;;;-0.90;77.00;;;;;;5071744;28;20044;-68
2021/12/26 12:01:42;;;;;;;6.22;3.63;;;-0.90;76.80;;;;;;5057073;28;20044;-72
2021/12/26 12:04:20;;;;;;;4.47;3.08;;;-0.90;77.50;;;;;;5071028;28;20051;-71
2021/12/26 12:06:47;;;;;;;9.02;3.58;;;-0.80;77.20;;;;;;5067798;28;20522;-72
2021/12/26 12:09:27;;;;;;;4.90;3.15;;;-0.80;76.90;;;;;;5071705;28;20071;-71
2021/12/26 12:12:03;;;;;;;6.80;3.70;;;-0.70;77.70;;;;;;5071268;28;20043;-69
2021/12/26 12:14:58;;;;;;;6.10;3.13;;;-0.70;77.40;;;;;;5066751;28;20047;-72
2021/12/26 12:17:29;;;;;;;5.57;3.33;;;-0.60;77.40;;;;;;5071401;28;20047;-71
2021/12/26 12:20:20;;;;;;;7.30;3.38;;;-0.60;77.20;;;;;;5074278;28;20051;-72
2021/12/26 12:23:04;;;;;;;5.30;3.20;;;-0.60;77.50;;;;;;5072451;28;20058;-67
2021/12/26 12:25:33;;;;;;;7.22;3.75;;;-0.60;76.30;;;;;;5074718;28;20052;-71
2021/12/26 12:28:06;;;;;;;5.43;3.38;;;-0.60;77.90;;;;;;5042475;28;20044;-70
2021/12/26 12:30:32;;;;;;;7.15;3.83;;;-0.40;78.20;;;;;;5084228;28;20438;-71
2021/12/26 12:33:19;;;;;;;7.72;3.60;;;-0.40;78.00;;;;;;5050946;28;20032;-68
2021/12/26 12:36:08;;;;;;;5.18;3.47;;;-0.30;77.90;;;;;;5052050;28;20043;-71
2021/12/26 12:38:43;;;;;;;6.70;3.63;;;-0.10;78.40;;;;;;5067240;28;20063;-70
2021/12/26 12:41:28;;;;;;;7.82;4.13;;;0.80;76.10;;;;;;5065478;28;20044;-69
2021/12/26 12:43:54;;;;;;;5.55;3.65;;;1.80;71.40;;;;;;5066505;28;20055;-71
2021/12/26 12:46:21;;;;;;;5.05;3.45;;;2.50;68.80;;;;;;5063757;28;20048;-68
2021/12/26 12:49:02;;;;;;;7.43;4.30;;;2.70;66.40;;;;;;5065882;28;20404;-67
2021/12/26 12:51:29;;;;;;;4.45;3.10;;;2.70;66.70;;;;;;5062421;28;20083;-68
2021/12/26 12:53:57;;;;;;;5.97;3.80;;;3.10;67.80;;;;;;5069700;28;20055;-69
2021/12/26 12:56:35;;;;;;;6.38;4.20;;;3.40;65.00;;;;;;5075547;28;20504;-71
2021/12/26 12:59:13;;;;;;;5.80;3.75;;;3.90;63.70;;;;;;5070632;28;20118;-68